createdAt,value
2023-11-18T00:00:12.441Z,6.87
2023-11-18T00:02:45.996Z,5.27
2023-11-18T00:05:19.341Z,5.70
2023-11-18T00:07:53.220Z,6.00
2023-11-18T00:10:26.563Z,4.80
2023-11-18T00:13:00.034Z,5.37
2023-11-18T00:15:35.990Z,16.57
2023-11-18T00:18:09.309Z,7.90
2023-11-18T00:20:42.735Z,6.83
2023-11-18T00:23:16.408Z,9.53
2023-11-18T00:25:50.693Z,13.30
2023-11-18T00:28:23.999Z,11.53
2023-11-18T00:30:57.570Z,9.10
2023-11-18T00:33:30.934Z,12.13
2023-11-18T00:36:04.628Z,16.50
2023-11-18T00:38:38.038Z,8.90
2023-11-18T00:41:13.965Z,11.13
2023-11-18T00:43:47.249Z,12.07
2023-11-18T00:46:20.703Z,18.80
2023-11-18T00:48:53.952Z,20.10
2023-11-18T00:51:28.898Z,7.03
2023-11-18T00:54:03.055Z,10.17
2023-11-18T00:56:36.393Z,7.80
2023-11-18T00:59:10.011Z,14.67
2023-11-18T01:01:44.604Z,10.30
2023-11-18T01:04:18.034Z,13.47
2023-11-18T01:06:52.792Z,13.60
2023-11-18T01:09:26.625Z,11.73
2023-11-18T01:12:07.933Z,13.63
2023-11-18T01:14:43.259Z,18.83
2023-11-18T01:17:17.713Z,14.07
2023-11-18T01:19:51.122Z,11.50
2023-11-18T01:22:25.299Z,10.23
2023-11-18T01:24:59.659Z,13.53
2023-11-18T01:27:36.886Z,11.03
2023-11-18T01:30:11.480Z,10.63
2023-11-18T01:32:45.128Z,10.33
2023-11-18T01:35:18.613Z,14.13
2023-11-18T01:37:52.036Z,11.83
2023-11-18T01:40:25.646Z,14.23
2023-11-18T01:42:59.065Z,10.40
2023-11-18T01:45:32.296Z,13.07
2023-11-18T01:48:07.137Z,15.10
2023-11-18T01:50:41.532Z,12.43
2023-11-18T01:53:18.335Z,14.13
2023-11-18T01:55:51.996Z,11.83
2023-11-18T01:58:27.109Z,13.20
2023-11-18T02:01:00.679Z,12.10
2023-11-18T02:03:34.185Z,21.57
2023-11-18T02:06:07.929Z,14.47
2023-11-18T02:08:42.814Z,14.90
2023-11-18T02:11:20.318Z,14.30
2023-11-18T02:13:55.789Z,9.30
2023-11-18T02:16:29.359Z,10.23
2023-11-18T02:19:06.738Z,7.37
2023-11-18T02:21:40.409Z,15.00
2023-11-18T02:24:26.130Z,9.60
2023-11-18T02:26:59.882Z,8.50
2023-11-18T02:29:44.360Z,9.43
2023-11-18T02:32:25.206Z,7.33
2023-11-18T02:35:05.116Z,7.40
2023-11-18T02:37:41.190Z,9.50
2023-11-18T02:40:17.668Z,9.53
2023-11-18T02:42:54.512Z,10.10
2023-11-18T02:45:28.697Z,10.20
2023-11-18T02:48:01.971Z,7.97
2023-11-18T02:50:39.664Z,9.73
2023-11-18T02:53:12.887Z,8.27
2023-11-18T02:55:47.190Z,10.37
2023-11-18T02:58:21.531Z,7.80
2023-11-18T03:00:55.091Z,7.70
2023-11-18T03:03:29.701Z,14.67
2023-11-18T03:06:03.239Z,11.27
2023-11-18T03:08:36.771Z,20.03
2023-11-18T03:11:10.493Z,24.03
2023-11-18T03:13:43.853Z,17.47
2023-11-18T03:16:18.109Z,19.40
2023-11-18T03:18:51.616Z,18.63
2023-11-18T03:21:25.057Z,23.07
2023-11-18T03:23:58.584Z,21.20
2023-11-18T03:26:33.107Z,19.70
2023-11-18T03:29:06.638Z,18.97
2023-11-18T03:31:39.892Z,17.80
2023-11-18T03:34:13.373Z,15.27
2023-11-18T03:36:47.817Z,16.47
2023-11-18T03:39:21.203Z,16.43
2023-11-18T03:41:54.422Z,13.77
2023-11-18T03:44:27.708Z,17.87
2023-11-18T03:47:04.548Z,21.50
2023-11-18T03:49:37.925Z,16.53
2023-11-18T03:52:11.402Z,14.37
2023-11-18T03:54:45.668Z,13.17
2023-11-18T03:57:19.093Z,13.97
2023-11-18T03:59:52.344Z,12.20
2023-11-18T04:02:26.333Z,17.57
2023-11-18T04:04:59.662Z,14.07
2023-11-18T04:07:33.091Z,16.63
2023-11-18T04:10:08.057Z,21.13
2023-11-18T04:12:41.476Z,23.07
2023-11-18T04:15:14.954Z,20.53
2023-11-18T04:17:48.410Z,23.50
2023-11-18T04:20:21.974Z,21.03
2023-11-18T04:22:55.559Z,16.23
2023-11-18T04:25:29.269Z,22.73
2023-11-18T04:28:02.562Z,25.87
2023-11-18T04:30:35.983Z,28.63
2023-11-18T04:33:09.812Z,27.73
2023-11-18T04:35:43.395Z,31.00
2023-11-18T04:38:16.653Z,22.87
2023-11-18T04:40:50.097Z,53.00
2023-11-18T04:43:34.574Z,34.57
2023-11-18T04:46:14.911Z,33.87
2023-11-18T04:48:48.543Z,54.33
2023-11-18T04:51:22.604Z,41.07
2023-11-18T04:53:56.036Z,48.63
2023-11-18T04:56:29.253Z,60.83
2023-11-18T04:59:03.146Z,27.90
2023-11-18T05:01:38.187Z,53.20
2023-11-18T05:04:12.333Z,57.87
2023-11-18T05:06:45.720Z,60.27
2023-11-18T05:09:20.470Z,41.67
2023-11-18T05:11:53.893Z,41.80
2023-11-18T05:14:28.093Z,49.73
2023-11-18T05:17:01.387Z,40.43
2023-11-18T05:19:34.859Z,42.23
2023-11-18T05:22:08.064Z,47.90
2023-11-18T05:24:43.945Z,70.07
2023-11-18T05:27:19.124Z,62.30
2023-11-18T05:29:55.814Z,30.63
2023-11-18T05:32:29.907Z,49.77
2023-11-18T05:35:06.346Z,52.13
2023-11-18T05:37:42.596Z,61.60
2023-11-18T05:40:17.266Z,45.63
2023-11-18T05:42:53.301Z,46.00
2023-11-18T05:45:29.681Z,42.53
2023-11-18T05:48:04.601Z,54.60
2023-11-18T05:50:37.861Z,46.80
2023-11-18T05:53:11.317Z,55.80
2023-11-18T05:55:44.578Z,45.33
2023-11-18T05:58:18.030Z,47.13
2023-11-18T06:00:51.319Z,58.63
2023-11-18T06:03:24.799Z,55.10
2023-11-18T06:05:58.076Z,45.03
2023-11-18T06:08:33.722Z,34.40
2023-11-18T06:11:14.321Z,45.97
2023-11-18T06:13:48.792Z,43.83
2023-11-18T06:16:26.184Z,34.90
2023-11-18T06:19:00.521Z,37.20
2023-11-18T06:21:34.950Z,56.03
2023-11-18T06:24:08.712Z,40.03
2023-11-18T06:26:42.877Z,49.33
2023-11-18T06:29:16.808Z,59.43
2023-11-18T06:31:50.140Z,42.73
2023-11-18T06:34:23.797Z,65.47
2023-11-18T06:36:57.512Z,52.57
2023-11-18T06:39:31.187Z,71.77
2023-11-18T06:42:06.396Z,62.53
2023-11-18T06:44:41.334Z,102.03
2023-11-18T06:47:20.009Z,55.77
2023-11-18T06:49:54.409Z,86.27
2023-11-18T06:52:27.984Z,43.37
2023-11-18T06:55:01.420Z,50.97
2023-11-18T06:57:34.767Z,65.20
2023-11-18T07:00:10.066Z,34.60
2023-11-18T07:02:43.633Z,41.13
2023-11-18T07:05:17.218Z,33.07
2023-11-18T07:07:50.551Z,50.13
2023-11-18T07:10:24.024Z,39.43
2023-11-18T07:12:57.421Z,42.63
2023-11-18T07:15:30.640Z,68.20
2023-11-18T07:18:04.245Z,50.37
2023-11-18T07:20:37.734Z,49.67
2023-11-18T07:23:11.741Z,74.93
2023-11-18T07:25:47.106Z,80.13
2023-11-18T07:28:20.436Z,106.00
2023-11-18T07:30:55.072Z,104.27
2023-11-18T07:33:28.506Z,74.70
2023-11-18T07:36:04.201Z,80.70
2023-11-18T07:38:37.796Z,93.53
2023-11-18T07:41:20.646Z,53.43
2023-11-18T07:43:56.300Z,95.80
2023-11-18T07:46:32.592Z,52.13
2023-11-18T07:49:07.866Z,83.97
2023-11-18T07:51:43.458Z,71.47
2023-11-18T07:54:17.277Z,97.57
2023-11-18T07:56:50.766Z,68.47
2023-11-18T07:59:25.695Z,67.57
2023-11-18T08:02:00.464Z,109.63
2023-11-18T08:04:34.020Z,77.60
2023-11-18T08:07:07.844Z,93.30
2023-11-18T08:09:41.105Z,86.80
2023-11-18T08:12:14.733Z,54.40
2023-11-18T08:14:48.521Z,86.20
2023-11-18T08:17:21.903Z,50.80
2023-11-18T08:19:55.229Z,62.67
2023-11-18T08:22:29.452Z,55.07
2023-11-18T08:25:03.048Z,45.10
2023-11-18T08:27:37.245Z,79.93
2023-11-18T08:30:12.757Z,33.07
2023-11-18T08:32:47.118Z,30.53
2023-11-18T08:35:22.710Z,45.37
2023-11-18T08:37:56.162Z,42.93
2023-11-18T08:40:30.183Z,42.97
2023-11-18T08:43:09.111Z,32.63
2023-11-18T08:45:42.773Z,28.27
2023-11-18T08:48:17.755Z,44.23
2023-11-18T08:50:52.878Z,30.63
2023-11-18T08:53:27.809Z,35.27
2023-11-18T08:56:01.258Z,30.87
2023-11-18T08:58:36.352Z,27.67
2023-11-18T09:01:16.699Z,28.47
2023-11-18T09:03:54.120Z,30.60
2023-11-18T09:06:30.053Z,30.27
2023-11-18T09:09:07.517Z,28.10
2023-11-18T09:11:42.711Z,34.63
2023-11-18T09:14:16.304Z,27.40
2023-11-18T09:16:50.371Z,30.73
2023-11-18T09:19:24.299Z,31.43
2023-11-18T09:21:57.603Z,33.27
2023-11-18T09:24:35.183Z,31.67
2023-11-18T09:27:10.657Z,28.20
2023-11-18T09:29:45.842Z,35.00
2023-11-18T09:32:20.623Z,30.93
2023-11-18T09:34:54.693Z,30.37
2023-11-18T09:37:28.299Z,28.40
2023-11-18T09:40:12.556Z,31.33
2023-11-18T09:42:46.290Z,27.23
2023-11-18T09:45:21.468Z,25.57
2023-11-18T09:47:56.302Z,26.80
2023-11-18T09:50:30.823Z,30.17
2023-11-18T09:53:09.177Z,26.87
2023-11-18T09:55:49.568Z,27.27
2023-11-18T09:58:25.541Z,30.20
2023-11-18T10:01:03.831Z,25.47
2023-11-18T10:03:39.118Z,25.47
2023-11-18T10:06:13.302Z,28.17
2023-11-18T10:08:47.426Z,26.63
2023-11-18T10:11:30.660Z,28.60
2023-11-18T10:14:07.609Z,23.57
2023-11-18T10:16:40.961Z,26.10
2023-11-18T10:19:15.730Z,26.93
2023-11-18T10:21:50.991Z,20.93
2023-11-18T10:24:24.315Z,27.17
2023-11-18T10:26:58.064Z,26.60
2023-11-18T10:29:31.774Z,22.93
2023-11-18T10:32:09.631Z,21.80
2023-11-18T10:34:43.672Z,25.07
2023-11-18T10:37:18.494Z,25.23
2023-11-18T10:39:53.028Z,27.93
2023-11-18T10:42:34.442Z,22.23
2023-11-18T10:45:08.792Z,27.27
2023-11-18T10:47:44.804Z,21.33
2023-11-18T10:50:21.458Z,22.77
2023-11-18T10:52:55.497Z,23.17
2023-11-18T10:55:38.894Z,23.27
2023-11-18T10:58:12.527Z,28.03
2023-11-18T11:00:54.926Z,23.67
2023-11-18T11:03:34.526Z,22.30
2023-11-18T11:06:20.834Z,21.43
2023-11-18T11:08:54.570Z,24.67
2023-11-18T11:11:30.809Z,21.53
2023-11-18T11:14:05.559Z,23.13
2023-11-18T11:16:45.164Z,22.53
2023-11-18T11:19:29.283Z,18.43
2023-11-18T11:22:16.736Z,20.87
2023-11-18T11:24:50.514Z,22.10
2023-11-18T11:27:51.233Z,22.37
2023-11-18T11:30:26.524Z,20.50
2023-11-18T11:33:05.619Z,20.73
2023-11-18T11:35:45.988Z,19.67
2023-11-18T11:38:20.277Z,19.07
2023-11-18T11:40:55.628Z,18.93
2023-11-18T11:43:29.624Z,16.87
2023-11-18T11:46:12.427Z,18.40
2023-11-18T11:48:49.207Z,17.30
2023-11-18T11:51:38.662Z,19.40
2023-11-18T11:54:16.856Z,15.03
2023-11-18T11:56:52.459Z,18.00
2023-11-18T11:59:46.181Z,16.47
2023-11-18T12:02:19.639Z,16.80
2023-11-18T12:04:55.783Z,18.20
2023-11-18T12:07:29.709Z,21.13
2023-11-18T12:10:07.693Z,19.47
2023-11-18T12:12:43.409Z,18.37
2023-11-18T12:15:19.924Z,20.03
2023-11-18T12:17:53.299Z,16.80
2023-11-18T12:20:56.654Z,16.93
2023-11-18T12:23:31.893Z,20.20
2023-11-18T12:26:26.384Z,16.20
2023-11-18T12:28:59.981Z,17.63
2023-11-18T12:31:43.789Z,18.10
2023-11-18T12:34:18.296Z,17.10
2023-11-18T12:37:01.365Z,18.03
2023-11-18T12:39:56.246Z,15.67
2023-11-18T12:42:50.218Z,15.83
2023-11-18T12:45:42.547Z,14.40
2023-11-18T12:48:17.145Z,14.93
2023-11-18T12:50:50.454Z,15.23
2023-11-18T12:53:30.004Z,15.30
2023-11-18T12:56:03.665Z,15.53
2023-11-18T12:58:37.024Z,10.90
2023-11-18T13:01:15.717Z,14.63
2023-11-18T13:03:49.129Z,12.33
2023-11-18T13:06:26.779Z,14.77
2023-11-18T13:09:00.175Z,12.33
2023-11-18T13:11:44.060Z,12.03
2023-11-18T13:14:18.851Z,11.70
2023-11-18T13:16:53.855Z,8.87
2023-11-18T13:19:29.229Z,8.63
2023-11-18T13:22:09.715Z,8.07
2023-11-18T13:24:47.009Z,5.87
2023-11-18T13:27:21.144Z,5.87
2023-11-18T13:29:55.020Z,5.23
2023-11-18T13:32:29.701Z,6.87
2023-11-18T13:35:03.888Z,6.33
2023-11-18T13:37:37.381Z,5.00
2023-11-18T13:40:10.943Z,4.37
2023-11-18T13:42:44.274Z,5.00
2023-11-18T13:45:30.702Z,5.17
2023-11-18T13:48:10.373Z,3.70
2023-11-18T13:50:44.720Z,2.70
2023-11-18T13:53:18.228Z,6.67
2023-11-18T13:55:51.681Z,4.43
2023-11-18T13:58:25.653Z,4.73
2023-11-18T14:00:59.135Z,7.23
2023-11-18T14:03:33.382Z,3.00
2023-11-18T14:06:13.870Z,2.87
2023-11-18T14:08:47.257Z,2.10
2023-11-18T14:11:21.353Z,3.87
2023-11-18T14:13:55.038Z,4.17
2023-11-18T14:16:28.710Z,2.00
2023-11-18T14:19:02.294Z,3.57
2023-11-18T14:21:35.704Z,4.47
2023-11-18T14:24:11.834Z,4.73
2023-11-18T14:26:45.618Z,3.40
2023-11-18T14:29:19.948Z,2.13
2023-11-18T14:31:54.021Z,2.00
2023-11-18T14:34:27.441Z,2.57
2023-11-18T14:37:02.210Z,2.10
2023-11-18T14:39:38.174Z,3.57
2023-11-18T14:42:11.447Z,1.70
2023-11-18T14:44:44.759Z,2.20
2023-11-18T14:47:18.084Z,4.90
2023-11-18T14:49:51.447Z,3.67
2023-11-18T14:52:25.363Z,1.93
2023-11-18T14:54:58.714Z,1.83
2023-11-18T14:57:31.956Z,2.10
2023-11-18T15:00:09.187Z,1.83
2023-11-18T15:02:42.472Z,1.40
2023-11-18T15:05:19.734Z,2.70
2023-11-18T15:07:54.867Z,2.60
2023-11-18T15:10:29.376Z,3.13
2023-11-18T15:13:02.975Z,2.40
2023-11-18T15:15:36.801Z,3.77
2023-11-18T15:18:15.000Z,2.50
2023-11-18T15:20:49.358Z,3.23
2023-11-18T15:23:27.216Z,2.37
2023-11-18T15:26:00.631Z,1.47
2023-11-18T15:28:33.957Z,2.83
2023-11-18T15:31:07.856Z,1.63
2023-11-18T15:33:42.951Z,2.07
2023-11-18T15:36:16.393Z,1.97
2023-11-18T15:38:49.609Z,1.73
2023-11-18T15:41:23.556Z,3.03
2023-11-18T15:43:56.850Z,2.00
2023-11-18T15:46:30.567Z,1.80
2023-11-18T15:49:03.837Z,3.37
2023-11-18T15:51:37.194Z,1.27
2023-11-18T15:54:13.026Z,1.70
2023-11-18T15:56:46.492Z,3.17
2023-11-18T15:59:19.870Z,1.70
2023-11-18T16:01:53.114Z,2.10
2023-11-18T16:04:26.497Z,1.60
2023-11-18T16:06:59.917Z,4.43
2023-11-18T16:09:33.111Z,2.67
2023-11-18T16:12:08.497Z,1.80
2023-11-18T16:14:41.790Z,2.40
2023-11-18T16:17:15.404Z,4.40
2023-11-18T16:19:48.650Z,2.20
2023-11-18T16:22:22.243Z,4.97
2023-11-18T16:24:55.492Z,3.67
2023-11-18T16:27:28.864Z,1.70
2023-11-18T16:30:03.279Z,3.23
2023-11-18T16:32:37.517Z,1.53
2023-11-18T16:35:13.137Z,1.67
2023-11-18T16:37:46.471Z,0.80
2023-11-18T16:40:25.007Z,2.10
2023-11-18T16:43:01.235Z,2.33
2023-11-18T16:45:34.939Z,2.00
2023-11-18T16:48:11.222Z,2.03
2023-11-18T16:50:45.348Z,2.93
2023-11-18T16:53:19.396Z,2.40
2023-11-18T16:55:52.999Z,2.17
2023-11-18T16:58:26.563Z,5.20
2023-11-18T17:01:01.129Z,2.17
2023-11-18T17:03:36.770Z,2.00
2023-11-18T17:06:10.434Z,1.93
2023-11-18T17:08:43.706Z,1.77
2023-11-18T17:11:17.659Z,2.63
2023-11-18T17:13:51.018Z,2.13
2023-11-18T17:16:28.395Z,1.77
2023-11-18T17:19:01.882Z,2.57
2023-11-18T17:21:35.132Z,2.03
2023-11-18T17:24:09.165Z,2.23
2023-11-18T17:26:45.286Z,2.07
2023-11-18T17:29:19.364Z,1.50
2023-11-18T17:31:52.763Z,1.60
2023-11-18T17:34:26.419Z,2.00
2023-11-18T17:36:59.762Z,2.63
2023-11-18T17:39:33.234Z,2.40
2023-11-18T17:42:06.552Z,1.50
2023-11-18T17:44:39.861Z,4.20
2023-11-18T17:47:13.284Z,1.93
2023-11-18T17:49:46.720Z,2.53
2023-11-18T17:52:25.530Z,3.07
2023-11-18T17:54:58.786Z,2.17
2023-11-18T17:57:32.698Z,2.10
2023-11-18T18:00:13.759Z,2.93
2023-11-18T18:02:48.470Z,3.07
2023-11-18T18:05:22.021Z,2.57
2023-11-18T18:07:55.954Z,3.70
2023-11-18T18:10:30.002Z,3.00
2023-11-18T18:13:03.426Z,2.10
2023-11-18T18:15:36.667Z,1.63
2023-11-18T18:18:10.621Z,1.37
2023-11-18T18:20:49.429Z,2.80
2023-11-18T18:23:22.837Z,1.40
2023-11-18T18:25:56.249Z,1.40
2023-11-18T18:28:29.975Z,2.30
2023-11-18T18:31:03.597Z,1.17
2023-11-18T18:33:36.873Z,1.70
2023-11-18T18:36:12.051Z,0.73
2023-11-18T18:38:45.331Z,0.90
2023-11-18T18:41:18.805Z,1.03
2023-11-18T18:43:52.287Z,1.67
2023-11-18T18:46:26.804Z,1.83
2023-11-18T18:49:00.230Z,1.50
2023-11-18T18:51:34.691Z,3.07
2023-11-18T18:54:08.236Z,1.60
2023-11-18T18:56:41.901Z,0.90
2023-11-18T18:59:15.323Z,1.17
2023-11-18T19:01:51.401Z,1.23
2023-11-18T19:04:24.732Z,1.20
2023-11-18T19:06:58.002Z,1.10
2023-11-18T19:09:31.227Z,0.80
2023-11-18T19:12:05.049Z,1.13
2023-11-18T19:14:38.934Z,0.70
2023-11-18T19:17:12.303Z,2.47
2023-11-18T19:19:45.799Z,2.13
2023-11-18T19:22:19.276Z,1.10
2023-11-18T19:24:52.673Z,0.70
2023-11-18T19:27:25.997Z,0.83
2023-11-18T19:30:00.473Z,2.03
2023-11-18T19:32:33.977Z,0.93
2023-11-18T19:35:07.539Z,0.60
2023-11-18T19:37:40.973Z,0.60
2023-11-18T19:40:14.370Z,1.70
2023-11-18T19:42:47.737Z,0.40
2023-11-18T19:45:21.085Z,0.60
2023-11-18T19:47:54.401Z,0.90
2023-11-18T19:50:28.871Z,0.77
2023-11-18T19:53:02.156Z,0.57
2023-11-18T19:55:36.384Z,2.33
2023-11-18T19:58:09.623Z,0.73
2023-11-18T20:00:45.343Z,0.40
2023-11-18T20:03:19.159Z,0.73
2023-11-18T20:05:53.883Z,0.40
2023-11-18T20:08:27.149Z,0.40
2023-11-18T20:11:00.611Z,0.40
2023-11-18T20:13:33.903Z,0.33
2023-11-18T20:16:09.033Z,0.80
2023-11-18T20:18:42.469Z,0.40
2023-11-18T20:21:15.836Z,0.50
2023-11-18T20:23:50.071Z,0.57
2023-11-18T20:26:23.429Z,0.40
2023-11-18T20:28:57.317Z,0.50
2023-11-18T20:31:30.510Z,0.57
2023-11-18T20:34:04.140Z,0.63
2023-11-18T20:36:38.435Z,1.50
2023-11-18T20:39:21.010Z,0.60
2023-11-18T20:41:55.657Z,0.50
2023-11-18T20:47:11.007Z,0.50
2023-11-18T20:49:44.412Z,0.73
2023-11-18T20:52:17.746Z,1.50
2023-11-18T20:54:51.428Z,0.47
2023-11-18T20:57:24.676Z,0.40
2023-11-18T20:59:58.332Z,0.40
2023-11-18T21:02:31.667Z,0.40
2023-11-18T21:05:13.267Z,0.80
2023-11-18T21:07:47.008Z,0.63
2023-11-18T21:10:20.378Z,0.60
2023-11-18T21:12:53.616Z,0.40
2023-11-18T21:15:27.131Z,0.50
2023-11-18T21:18:00.429Z,0.40
2023-11-18T21:20:34.564Z,0.40
2023-11-18T21:23:08.233Z,0.40
2023-11-18T21:25:41.681Z,0.50
2023-11-18T21:28:15.010Z,0.40
2023-11-18T21:30:48.411Z,0.40
2023-11-18T21:33:25.233Z,0.47
2023-11-18T21:35:58.467Z,0.90
2023-11-18T21:38:31.863Z,0.63
2023-11-18T21:41:06.779Z,0.40
2023-11-18T21:43:40.219Z,0.80
2023-11-18T21:46:13.680Z,0.40
2023-11-18T21:48:47.148Z,0.47
2023-11-18T21:51:20.494Z,0.40
2023-11-18T21:53:53.898Z,0.40
2023-11-18T21:56:27.270Z,0.40
2023-11-18T21:59:00.898Z,0.40
2023-11-18T22:01:34.419Z,0.83
2023-11-18T22:04:08.192Z,0.87
2023-11-18T22:06:41.975Z,0.70
2023-11-18T22:09:15.559Z,1.23
2023-11-18T22:11:49.636Z,0.40
2023-11-18T22:14:22.899Z,0.30
2023-11-18T22:16:56.307Z,0.40
2023-11-18T22:19:29.539Z,0.43
2023-11-18T22:22:04.253Z,0.40
2023-11-18T22:24:37.548Z,0.40
2023-11-18T22:27:11.029Z,0.37
2023-11-18T22:29:44.392Z,0.30
2023-11-18T22:32:18.509Z,0.40
2023-11-18T22:34:54.910Z,0.50
2023-11-18T22:37:28.259Z,0.40
2023-11-18T22:40:02.391Z,0.50
2023-11-18T22:42:36.037Z,0.30
2023-11-18T22:45:17.763Z,0.40
2023-11-18T22:47:52.204Z,0.30
2023-11-18T22:50:25.815Z,0.30
2023-11-18T22:52:59.198Z,0.30
2023-11-18T22:55:32.434Z,0.60
2023-11-18T22:58:09.301Z,1.90
2023-11-18T23:00:52.363Z,0.97
2023-11-18T23:03:27.570Z,0.40
2023-11-18T23:06:09.947Z,0.40
2023-11-18T23:08:44.632Z,0.40
2023-11-18T23:11:18.605Z,0.40
2023-11-18T23:13:51.925Z,0.30
2023-11-18T23:16:25.448Z,0.30
2023-11-18T23:18:58.872Z,0.40
2023-11-18T23:21:34.710Z,0.90
2023-11-18T23:24:09.947Z,0.30
2023-11-18T23:26:43.153Z,0.30
2023-11-18T23:29:16.521Z,0.43
2023-11-18T23:31:50.008Z,0.30
2023-11-18T23:34:23.444Z,0.40
2023-11-18T23:36:56.625Z,0.30
2023-11-18T23:39:30.132Z,0.30
2023-11-18T23:42:03.568Z,0.30
2023-11-18T23:44:37.347Z,0.30
2023-11-18T23:47:10.536Z,0.30
2023-11-18T23:49:44.537Z,0.30
2023-11-18T23:52:17.719Z,1.03
2023-11-18T23:54:51.685Z,0.30
2023-11-18T23:57:24.993Z,0.20
2023-11-18T23:59:59.202Z,0.30
